sensor_id;sensor_type;location;lat;lon;timestamp;P1;P2;P0
33948;PMS7003;20229;49.856;19.030;2022-09-09T00:17:12;35;29;25
33948;PMS7003;20229;49.856;19.030;2022-09-09T00:22:19;33;27;22
33948;PMS7003;20229;49.856;19.030;2022-09-09T00:32:43;29;24;19
33948;PMS7003;20229;49.856;19.030;2022-09-09T00:37:47;35;28;24
33948;PMS7003;20229;49.856;19.030;2022-09-09T00:43:14;34;28;25
33948;PMS7003;20229;49.856;19.030;2022-09-09T00:48:11;19;17;14
33948;PMS7003;20229;49.856;19.030;2022-09-09T00:58:33;31;26;21
33948;PMS7003;20229;49.856;19.030;2022-09-09T01:03:38;13;13;10
33948;PMS7003;20229;49.856;19.030;2022-09-09T01:19:26;14;13;10
33948;PMS7003;20229;49.856;19.030;2022-09-09T01:24:40;18;17;14
33948;PMS7003;20229;49.856;19.030;2022-09-09T01:29:51;23;20;16
33948;PMS7003;20229;49.856;19.030;2022-09-09T01:34:55;24;21;17
33948;PMS7003;20229;49.856;19.030;2022-09-09T01:39:58;10;10;9
33948;PMS7003;20229;49.856;19.030;2022-09-09T01:45:02;13;13;10
33948;PMS7003;20229;49.856;19.030;2022-09-09T01:50:07;22;20;16
33948;PMS7003;20229;49.856;19.030;2022-09-09T01:55:16;12;11;9
33948;PMS7003;20229;49.856;19.030;2022-09-09T02:00:21;11;10;8
33948;PMS7003;20229;49.856;19.030;2022-09-09T02:10:46;12;11;9
33948;PMS7003;20229;49.856;19.030;2022-09-09T02:15:59;11;11;9
33948;PMS7003;20229;49.856;19.030;2022-09-09T02:21:11;21;20;17
33948;PMS7003;20229;49.856;19.030;2022-09-09T02:26:16;10;10;8
33948;PMS7003;20229;49.856;19.030;2022-09-09T02:31:36;12;11;9
33948;PMS7003;20229;49.856;19.030;2022-09-09T02:36:41;12;11;9
33948;PMS7003;20229;49.856;19.030;2022-09-09T02:42:02;12;12;10
33948;PMS7003;20229;49.856;19.030;2022-09-09T02:52:30;14;12;9
33948;PMS7003;20229;49.856;19.030;2022-09-09T02:57:40;20;19;15
33948;PMS7003;20229;49.856;19.030;2022-09-09T03:02:52;10;10;8
33948;PMS7003;20229;49.856;19.030;2022-09-09T03:08:00;10;9;8
33948;PMS7003;20229;49.856;19.030;2022-09-09T03:13:18;20;19;16
33948;PMS7003;20229;49.856;19.030;2022-09-09T03:18:22;22;20;16
33948;PMS7003;20229;49.856;19.030;2022-09-09T03:23:43;18;17;14
33948;PMS7003;20229;49.856;19.030;2022-09-09T03:28:47;11;11;9
33948;PMS7003;20229;49.856;19.030;2022-09-09T03:34:09;13;12;10
33948;PMS7003;20229;49.856;19.030;2022-09-09T03:39:13;12;11;10
33948;PMS7003;20229;49.856;19.030;2022-09-09T03:44:34;14;13;10
33948;PMS7003;20229;49.856;19.030;2022-09-09T03:49:37;12;10;9
33948;PMS7003;20229;49.856;19.030;2022-09-09T03:54:59;17;16;13
33948;PMS7003;20229;49.856;19.030;2022-09-09T04:00:05;15;14;11
33948;PMS7003;20229;49.856;19.030;2022-09-09T04:05:25;15;15;12
33948;PMS7003;20229;49.856;19.030;2022-09-09T04:10:28;18;15;12
33948;PMS7003;20229;49.856;19.030;2022-09-09T04:15:54;35;30;25
33948;PMS7003;20229;49.856;19.030;2022-09-09T04:21:00;19;17;15
33948;PMS7003;20229;49.856;19.030;2022-09-09T04:26:17;18;16;13
33948;PMS7003;20229;49.856;19.030;2022-09-09T04:31:23;17;16;13
33948;PMS7003;20229;49.856;19.030;2022-09-09T04:36:42;19;18;15
33948;PMS7003;20229;49.856;19.030;2022-09-09T04:41:46;17;15;12
33948;PMS7003;20229;49.856;19.030;2022-09-09T04:47:07;32;27;21
33948;PMS7003;20229;49.856;19.030;2022-09-09T04:52:12;16;15;12
33948;PMS7003;20229;49.856;19.030;2022-09-09T04:57:34;15;13;11
33948;PMS7003;20229;49.856;19.030;2022-09-09T05:02:37;29;25;20
33948;PMS7003;20229;49.856;19.030;2022-09-09T05:08:05;13;12;10
33948;PMS7003;20229;49.856;19.030;2022-09-09T05:13:11;11;10;8
33948;PMS7003;20229;49.856;19.030;2022-09-09T05:18:24;15;13;11
33948;PMS7003;20229;49.856;19.030;2022-09-09T05:23:27;13;13;11
33948;PMS7003;20229;49.856;19.030;2022-09-09T05:28:49;15;13;10
33948;PMS7003;20229;49.856;19.030;2022-09-09T05:33:53;10;9;7
33948;PMS7003;20229;49.856;19.030;2022-09-09T05:39:15;13;11;8
33948;PMS7003;20229;49.856;19.030;2022-09-09T05:44:19;16;16;13
33948;PMS7003;20229;49.856;19.030;2022-09-09T05:49:40;20;19;16
33948;PMS7003;20229;49.856;19.030;2022-09-09T05:54:43;17;17;15
33948;PMS7003;20229;49.856;19.030;2022-09-09T06:00:06;17;16;13
33948;PMS7003;20229;49.856;19.030;2022-09-09T06:05:10;25;22;16
33948;PMS7003;20229;49.856;19.030;2022-09-09T06:10:31;6;6;4
33948;PMS7003;20229;49.856;19.030;2022-09-09T06:15:34;6;5;3
33948;PMS7003;20229;49.856;19.030;2022-09-09T06:20:57;8;7;5
33948;PMS7003;20229;49.856;19.030;2022-09-09T06:26:10;12;12;11
33948;PMS7003;20229;49.856;19.030;2022-09-09T06:31:22;18;16;13
33948;PMS7003;20229;49.856;19.030;2022-09-09T06:36:29;19;19;15
33948;PMS7003;20229;49.856;19.030;2022-09-09T06:41:47;37;32;26
33948;PMS7003;20229;49.856;19.030;2022-09-09T06:46:52;13;12;10
33948;PMS7003;20229;49.856;19.030;2022-09-09T06:52:12;21;21;18
33948;PMS7003;20229;49.856;19.030;2022-09-09T06:57:16;25;22;19
33948;PMS7003;20229;49.856;19.030;2022-09-09T07:04:49;27;24;20
33948;PMS7003;20229;49.856;19.030;2022-09-09T07:10:15;29;26;23
33948;PMS7003;20229;49.856;19.030;2022-09-09T07:15:18;36;31;26
33948;PMS7003;20229;49.856;19.030;2022-09-09T07:20:40;22;21;17
33948;PMS7003;20229;49.856;19.030;2022-09-09T07:25:44;22;21;18
33948;PMS7003;20229;49.856;19.030;2022-09-09T07:31:06;30;28;24
33948;PMS7003;20229;49.856;19.030;2022-09-09T07:36:13;26;24;21
33948;PMS7003;20229;49.856;19.030;2022-09-09T07:41:35;19;19;16
33948;PMS7003;20229;49.856;19.030;2022-09-09T07:46:40;15;15;14
33948;PMS7003;20229;49.856;19.030;2022-09-09T07:51:56;9;9;8
33948;PMS7003;20229;49.856;19.030;2022-09-09T07:56:59;13;13;11
33948;PMS7003;20229;49.856;19.030;2022-09-09T08:02:21;14;14;13
33948;PMS7003;20229;49.856;19.030;2022-09-09T08:07:24;9;8;8
33948;PMS7003;20229;49.856;19.030;2022-09-09T08:12:46;12;11;10
33948;PMS7003;20229;49.856;19.030;2022-09-09T08:17:49;26;23;20
33948;PMS7003;20229;49.856;19.030;2022-09-09T08:23:11;48;40;36
33948;PMS7003;20229;49.856;19.030;2022-09-09T08:28:14;46;39;34
33948;PMS7003;20229;49.856;19.030;2022-09-09T08:33:36;8;7;7
33948;PMS7003;20229;49.856;19.030;2022-09-09T08:38:47;8;8;7
33948;PMS7003;20229;49.856;19.030;2022-09-09T08:44:04;12;12;11
33948;PMS7003;20229;49.856;19.030;2022-09-09T08:54:34;8;8;7
33948;PMS7003;20229;49.856;19.030;2022-09-09T08:59:39;12;12;10
33948;PMS7003;20229;49.856;19.030;2022-09-09T09:15:24;32;30;25
33948;PMS7003;20229;49.856;19.030;2022-09-09T09:25:46;17;17;15
33948;PMS7003;20229;49.856;19.030;2022-09-09T09:30:52;16;16;14
33948;PMS7003;20229;49.856;19.030;2022-09-09T09:36:08;22;22;19
33948;PMS7003;20229;49.856;19.030;2022-09-09T09:41:11;10;9;7
33948;PMS7003;20229;49.856;19.030;2022-09-09T09:46:33;12;12;11
33948;PMS7003;20229;49.856;19.030;2022-09-09T09:51:36;14;14;13
33948;PMS7003;20229;49.856;19.030;2022-09-09T10:07:29;12;12;11
33948;PMS7003;20229;49.856;19.030;2022-09-09T10:59:57;24;22;21
33948;PMS7003;20229;49.856;19.030;2022-09-09T11:05:14;14;14;13
33948;PMS7003;20229;49.856;19.030;2022-09-09T11:10:34;8;8;7
33948;PMS7003;20229;49.856;19.030;2022-09-09T11:15:41;6;6;6
33948;PMS7003;20229;49.856;19.030;2022-09-09T11:20:51;11;11;9
33948;PMS7003;20229;49.856;19.030;2022-09-09T11:26:01;15;15;13
33948;PMS7003;20229;49.856;19.030;2022-09-09T11:31:15;12;12;11
33948;PMS7003;20229;49.856;19.030;2022-09-09T11:36:25;17;16;15
33948;PMS7003;20229;49.856;19.030;2022-09-09T11:41:37;15;15;14
33948;PMS7003;20229;49.856;19.030;2022-09-09T11:46:41;15;15;13
33948;PMS7003;20229;49.856;19.030;2022-09-09T11:51:46;18;17;16
33948;PMS7003;20229;49.856;19.030;2022-09-09T11:56:50;30;29;25
33948;PMS7003;20229;49.856;19.030;2022-09-09T12:02:02;11;11;9
33948;PMS7003;20229;49.856;19.030;2022-09-09T12:12:31;23;23;21
33948;PMS7003;20229;49.856;19.030;2022-09-09T12:22:56;24;24;22
33948;PMS7003;20229;49.856;19.030;2022-09-09T12:33:23;18;17;16
33948;PMS7003;20229;49.856;19.030;2022-09-09T12:38:32;21;20;19
33948;PMS7003;20229;49.856;19.030;2022-09-09T12:43:42;18;18;17
33948;PMS7003;20229;49.856;19.030;2022-09-09T12:48:46;12;12;11
33948;PMS7003;20229;49.856;19.030;2022-09-09T12:54:12;25;24;22
33948;PMS7003;20229;49.856;19.030;2022-09-09T12:59:27;31;30;26
33948;PMS7003;20229;49.856;19.030;2022-09-09T13:04:33;19;19;18
33948;PMS7003;20229;49.856;19.030;2022-09-09T13:09:37;13;13;12
33948;PMS7003;20229;49.856;19.030;2022-09-09T13:14:58;17;16;14
33948;PMS7003;20229;49.856;19.030;2022-09-09T13:20:02;14;14;13
33948;PMS7003;20229;49.856;19.030;2022-09-09T13:25:25;25;25;22
33948;PMS7003;20229;49.856;19.030;2022-09-09T13:30:33;17;17;16
33948;PMS7003;20229;49.856;19.030;2022-09-09T13:35:53;10;10;8
33948;PMS7003;20229;49.856;19.030;2022-09-09T13:51:39;12;12;11
33948;PMS7003;20229;49.856;19.030;2022-09-09T13:56:45;15;15;14
33948;PMS7003;20229;49.856;19.030;2022-09-09T14:01:52;33;32;27
33948;PMS7003;20229;49.856;19.030;2022-09-09T14:07:05;22;22;21
33948;PMS7003;20229;49.856;19.030;2022-09-09T14:12:11;35;33;28
33948;PMS7003;20229;49.856;19.030;2022-09-09T14:17:30;22;22;20
33948;PMS7003;20229;49.856;19.030;2022-09-09T14:22:34;16;16;15
33948;PMS7003;20229;49.856;19.030;2022-09-09T14:27:55;22;22;21
33948;PMS7003;20229;49.856;19.030;2022-09-09T14:32:59;16;16;14
33948;PMS7003;20229;49.856;19.030;2022-09-09T14:38:21;18;16;15
33948;PMS7003;20229;49.856;19.030;2022-09-09T14:43:24;18;18;16
33948;PMS7003;20229;49.856;19.030;2022-09-09T14:48:46;26;25;23
33948;PMS7003;20229;49.856;19.030;2022-09-09T14:53:54;32;31;26
33948;PMS7003;20229;49.856;19.030;2022-09-09T14:59:11;37;35;28
33948;PMS7003;20229;49.856;19.030;2022-09-09T15:04:19;29;29;25
33948;PMS7003;20229;49.856;19.030;2022-09-09T15:09:37;25;24;22
33948;PMS7003;20229;49.856;19.030;2022-09-09T15:14:40;36;34;29
33948;PMS7003;20229;49.856;19.030;2022-09-09T15:20:03;28;27;24
33948;PMS7003;20229;49.856;19.030;2022-09-09T15:25:08;31;31;26
33948;PMS7003;20229;49.856;19.030;2022-09-09T15:30:28;39;36;30
33948;PMS7003;20229;49.856;19.030;2022-09-09T15:35:31;43;38;32
33948;PMS7003;20229;49.856;19.030;2022-09-09T15:40:53;21;20;18
33948;PMS7003;20229;49.856;19.030;2022-09-09T15:45:59;15;14;12
33948;PMS7003;20229;49.856;19.030;2022-09-09T15:51:18;9;8;6
33948;PMS7003;20229;49.856;19.030;2022-09-09T15:56:22;7;6;6
33948;PMS7003;20229;49.856;19.030;2022-09-09T16:01:43;7;6;5
33948;PMS7003;20229;49.856;19.030;2022-09-09T16:06:47;6;6;4
33948;PMS7003;20229;49.856;19.030;2022-09-09T16:12:09;9;9;8
33948;PMS7003;20229;49.856;19.030;2022-09-09T16:17:15;12;12;11
33948;PMS7003;20229;49.856;19.030;2022-09-09T16:22:34;8;8;7
33948;PMS7003;20229;49.856;19.030;2022-09-09T16:27:37;6;6;6
33948;PMS7003;20229;49.856;19.030;2022-09-09T16:32:59;11;10;8
33948;PMS7003;20229;49.856;19.030;2022-09-09T16:38:02;9;8;7
33948;PMS7003;20229;49.856;19.030;2022-09-09T16:43:24;8;8;6
33948;PMS7003;20229;49.856;19.030;2022-09-09T16:48:34;7;7;5
33948;PMS7003;20229;49.856;19.030;2022-09-09T16:53:50;8;7;5
33948;PMS7003;20229;49.856;19.030;2022-09-09T16:58:55;11;9;6
33948;PMS7003;20229;49.856;19.030;2022-09-09T17:04:16;12;12;10
33948;PMS7003;20229;49.856;19.030;2022-09-09T17:09:26;15;13;10
33948;PMS7003;20229;49.856;19.030;2022-09-09T17:14:40;26;25;20
33948;PMS7003;20229;49.856;19.030;2022-09-09T17:19:44;14;13;11
33948;PMS7003;20229;49.856;19.030;2022-09-09T17:25:06;35;32;26
33948;PMS7003;20229;49.856;19.030;2022-09-09T17:30:11;33;30;24
33948;PMS7003;20229;49.856;19.030;2022-09-09T17:35:32;31;27;22
33948;PMS7003;20229;49.856;19.030;2022-09-09T17:40:36;33;28;23
33948;PMS7003;20229;49.856;19.030;2022-09-09T17:46:07;35;30;24
33948;PMS7003;20229;49.856;19.030;2022-09-09T17:51:13;38;33;26
33948;PMS7003;20229;49.856;19.030;2022-09-09T17:56:23;35;30;24
33948;PMS7003;20229;49.856;19.030;2022-09-09T18:01:30;32;28;22
33948;PMS7003;20229;49.856;19.030;2022-09-09T18:06:49;28;26;19
33948;PMS7003;20229;49.856;19.030;2022-09-09T18:11:56;36;31;23
33948;PMS7003;20229;49.856;19.030;2022-09-09T18:17:14;38;32;24
33948;PMS7003;20229;49.856;19.030;2022-09-09T18:22:17;29;27;21
33948;PMS7003;20229;49.856;19.030;2022-09-09T18:27:39;31;27;21
33948;PMS7003;20229;49.856;19.030;2022-09-09T18:32:43;35;30;23
33948;PMS7003;20229;49.856;19.030;2022-09-09T18:38:05;35;29;22
33948;PMS7003;20229;49.856;19.030;2022-09-09T18:43:08;33;28;22
33948;PMS7003;20229;49.856;19.030;2022-09-09T18:48:33;36;31;23
33948;PMS7003;20229;49.856;19.030;2022-09-09T18:53:37;34;29;22
33948;PMS7003;20229;49.856;19.030;2022-09-09T18:59:02;33;30;23
33948;PMS7003;20229;49.856;19.030;2022-09-09T19:04:08;35;31;23
33948;PMS7003;20229;49.856;19.030;2022-09-09T19:09:22;38;33;25
33948;PMS7003;20229;49.856;19.030;2022-09-09T19:14:28;35;29;23
33948;PMS7003;20229;49.856;19.030;2022-09-09T19:19:47;31;27;21
33948;PMS7003;20229;49.856;19.030;2022-09-09T19:24:54;33;29;23
33948;PMS7003;20229;49.856;19.030;2022-09-09T19:30:13;30;26;20
33948;PMS7003;20229;49.856;19.030;2022-09-09T19:35:18;25;23;18
33948;PMS7003;20229;49.856;19.030;2022-09-09T19:40:38;28;26;20
33948;PMS7003;20229;49.856;19.030;2022-09-09T19:45:43;31;28;21
33948;PMS7003;20229;49.856;19.030;2022-09-09T19:51:05;33;29;21
33948;PMS7003;20229;49.856;19.030;2022-09-09T19:56:11;21;18;13
33948;PMS7003;20229;49.856;19.030;2022-09-09T20:01:30;15;11;7
33948;PMS7003;20229;49.856;19.030;2022-09-09T20:06:37;16;14;11
33948;PMS7003;20229;49.856;19.030;2022-09-09T20:11:55;9;8;4
33948;PMS7003;20229;49.856;19.030;2022-09-09T20:16:59;10;8;5
33948;PMS7003;20229;49.856;19.030;2022-09-09T20:22:20;14;11;7
33948;PMS7003;20229;49.856;19.030;2022-09-09T20:27:24;12;11;6
33948;PMS7003;20229;49.856;19.030;2022-09-09T20:32:46;8;7;3
33948;PMS7003;20229;49.856;19.030;2022-09-09T20:37:49;7;6;3
33948;PMS7003;20229;49.856;19.030;2022-09-09T20:43:12;10;7;3
33948;PMS7003;20229;49.856;19.030;2022-09-09T20:48:15;6;5;2
33948;PMS7003;20229;49.856;19.030;2022-09-09T20:53:37;5;3;2
33948;PMS7003;20229;49.856;19.030;2022-09-09T20:58:41;6;6;2
33948;PMS7003;20229;49.856;19.030;2022-09-09T21:04:03;11;9;3
33948;PMS7003;20229;49.856;19.030;2022-09-09T21:09:07;11;11;5
33948;PMS7003;20229;49.856;19.030;2022-09-09T21:14:28;8;7;2
33948;PMS7003;20229;49.856;19.030;2022-09-09T21:19:34;16;12;8
33948;PMS7003;20229;49.856;19.030;2022-09-09T21:24:54;14;12;7
33948;PMS7003;20229;49.856;19.030;2022-09-09T21:29:57;15;11;6
33948;PMS7003;20229;49.856;19.030;2022-09-09T21:35:20;12;11;8
33948;PMS7003;20229;49.856;19.030;2022-09-09T21:40:23;10;8;3
33948;PMS7003;20229;49.856;19.030;2022-09-09T21:45:45;10;8;3
33948;PMS7003;20229;49.856;19.030;2022-09-09T21:50:49;10;8;4
33948;PMS7003;20229;49.856;19.030;2022-09-09T21:56:12;9;8;4
33948;PMS7003;20229;49.856;19.030;2022-09-09T22:01:17;11;9;4
33948;PMS7003;20229;49.856;19.030;2022-09-09T22:06:36;11;9;4
33948;PMS7003;20229;49.856;19.030;2022-09-09T22:11:40;14;10;5
33948;PMS7003;20229;49.856;19.030;2022-09-09T22:17:02;10;8;4
33948;PMS7003;20229;49.856;19.030;2022-09-09T22:22:07;11;10;5
33948;PMS7003;20229;49.856;19.030;2022-09-09T22:27:28;16;13;8
33948;PMS7003;20229;49.856;19.030;2022-09-09T22:32:31;17;15;10
33948;PMS7003;20229;49.856;19.030;2022-09-09T22:37:53;43;38;32
33948;PMS7003;20229;49.856;19.030;2022-09-09T22:42:58;40;36;30
33948;PMS7003;20229;49.856;19.030;2022-09-09T22:48:19;38;30;23
33948;PMS7003;20229;49.856;19.030;2022-09-09T22:53:22;31;27;21
33948;PMS7003;20229;49.856;19.030;2022-09-09T22:58:45;34;29;22
33948;PMS7003;20229;49.856;19.030;2022-09-09T23:03:49;34;29;22
33948;PMS7003;20229;49.856;19.030;2022-09-09T23:09:10;34;30;23
33948;PMS7003;20229;49.856;19.030;2022-09-09T23:14:14;35;30;22
33948;PMS7003;20229;49.856;19.030;2022-09-09T23:19:36;33;29;22
33948;PMS7003;20229;49.856;19.030;2022-09-09T23:24:40;36;29;22
33948;PMS7003;20229;49.856;19.030;2022-09-09T23:30:01;36;30;23
33948;PMS7003;20229;49.856;19.030;2022-09-09T23:35:06;36;30;23
33948;PMS7003;20229;49.856;19.030;2022-09-09T23:40:27;34;29;22
33948;PMS7003;20229;49.856;19.030;2022-09-09T23:45:33;37;31;26
33948;PMS7003;20229;49.856;19.030;2022-09-09T23:50:53;30;25;20
33948;PMS7003;20229;49.856;19.030;2022-09-09T23:55:56;26;22;17
